Terminal Aerodrome Forecast
Issued by NWS Mt. Holly, NJ

Home | Current Version | Previous Version | Text Only | Print | Product List | Glossary On
Versions: 1 2 3 4 5 6 7 8 9 10 11 12 13 14 15 16 17 18 19 20 21 22 23 24 25 26
000
FTUS41 KPHI 250229 AAA
TAFTTN
TAF AMD
KTTN 250229Z 2502/2524 VRB03KT P6SM VCSH OVC045
     FM250500 07004KT P6SM OVC025
     FM250600 08005KT 6SM -RA BR OVC015
     FM250700 09006KT 5SM -RA BR OVC010
     FM250900 09008KT 2SM -RA BR OVC005
     FM252000 VRB03KT P6SM OVC010
     FM252200 VRB03KT P6SM BKN035=

USA.gov is the U.S. government's official web portal to all federal, state and local government web resources and services.